Aérodrome :
LOGIN :

S'inscrire | Disclaimer

   EN    FR    IT 

 










Légende :    VFR   VFR Marginal   IFR   IFR Intensif   IFR Très Intensif
Visi : 
Plafond : 
>= 8 km
>= 3000ft
5 à 8 km
1000 à 3000 ft
1500m à 5 km
500 à 1000 ft
800 à 1500m
200 à 500 ft
< 800m
< 200 ft
Symboles :   Orages  Brouillard  Fortes neiges  Fortes précipitations  Vent > 20 kt
SIGMETs :   Divers  Orages  Givrage  Turbulence  Onde Orograph.  Cendres Volcan.







- Altitude de l'aérodrome : 16 ft
- Code IATA : SDR


LEXJ - Santander Cantabria

DERNIER METAR :
  • 292100Z 30013KT CAVOK 15/09 Q1004

METARs EXPIRÉS :
  • 292030Z VRB01KT CAVOK 15/10 Q1004
  • 292000Z 00000KT CAVOK 16/10 Q1003
  • 291930Z 26007KT 230V300 CAVOK 17/10 Q1003
  • 291900Z 26008KT 220V280 CAVOK 17/10 Q1003
  • 291830Z 27009KT 230V320 CAVOK 19/11 Q1003

TAF TAF LEXJ
Valide du 29 à 21h jusqu'au 30 à 21h UTC


292000Z 2921/3021 26009KT 9999 FEW030 SCT045 TX16/3012Z TN08/3021Z
TEMPO 3004/3009 22018G30KT
PROB30
TEMPO 3005/3008 RA
TEMPO 3008/3021 28015G28KT
TEMPO 3008/3016 RA SHRA TSGS SCT020CB
PROB30
TEMPO 3016/3020 32018G32KT SHRA TSGR SCT025CB
Pas de NOTAMs connus pour ce terrain.



MET'MAP, la Météo Aéronautique d'un coup d'oeil ! - Copyright ORBIFLY Décembre 2007 - Disclaimer

ORBIFLY MET'MAP TEAM :

Programmation & Développement : Alexandra Zaïnal
Conception & Développement : Baudouin d'Aumeries
Co-Programmation & Développement : Marc-Olivier Méhu
Soutien technique & logistique : Manuel Goepfert

Contact : metmap@orbifly.com




SOURCES & CREDITS :

   NOAA